createdAt,value
2023-04-19T00:01:28.380Z,100.00
2023-04-19T00:03:56.788Z,100.00
2023-04-19T00:06:24.641Z,100.00
2023-04-19T00:08:51.201Z,100.00
2023-04-19T00:11:17.767Z,100.00
2023-04-19T00:13:44.260Z,100.00
2023-04-19T00:16:10.799Z,100.00
2023-04-19T00:18:38.677Z,100.00
2023-04-19T00:21:09.262Z,100.00
2023-04-19T00:23:35.779Z,100.00
2023-04-19T00:26:05.472Z,100.00
2023-04-19T00:28:35.289Z,100.00
2023-04-19T00:31:01.893Z,100.00
2023-04-19T00:33:28.456Z,100.00
2023-04-19T00:35:54.913Z,100.00
2023-04-19T00:38:21.364Z,100.00
2023-04-19T00:40:47.784Z,100.00
2023-04-19T00:43:18.822Z,100.00
2023-04-19T00:45:45.990Z,100.00
2023-04-19T00:48:14.385Z,100.00
2023-04-19T00:50:43.404Z,100.00
2023-04-19T00:53:10.703Z,100.00
2023-04-19T00:55:39.088Z,100.00
2023-04-19T00:58:09.284Z,100.00
2023-04-19T01:00:39.114Z,100.00
2023-04-19T01:03:05.727Z,100.00
2023-04-19T01:05:32.296Z,100.00
2023-04-19T01:07:58.853Z,100.00
2023-04-19T01:10:25.443Z,100.00
2023-04-19T01:12:51.968Z,100.00
2023-04-19T01:15:19.627Z,100.00
2023-04-19T01:17:46.182Z,100.00
2023-04-19T01:20:13.522Z,100.00
2023-04-19T01:22:40.207Z,100.00
2023-04-19T01:25:07.503Z,100.00
2023-04-19T01:27:34.031Z,100.00
2023-04-19T01:30:00.750Z,100.00
2023-04-19T01:32:27.286Z,100.00
2023-04-19T01:34:53.755Z,100.00
2023-04-19T01:37:20.270Z,100.00
2023-04-19T01:39:46.741Z,100.00
2023-04-19T01:42:13.218Z,100.00
2023-04-19T01:44:39.709Z,100.00
2023-04-19T01:47:06.521Z,100.00
2023-04-19T01:49:33.035Z,100.00
2023-04-19T01:51:59.508Z,100.00
2023-04-19T01:54:26.997Z,100.00
2023-04-19T01:56:53.501Z,100.00
2023-04-19T01:59:20.003Z,100.00
2023-04-19T02:01:46.443Z,100.00
2023-04-19T02:04:13.037Z,100.00
2023-04-19T02:06:39.601Z,100.00
2023-04-19T02:09:06.046Z,100.00
2023-04-19T02:11:32.519Z,100.00
2023-04-19T02:13:58.954Z,100.00
2023-04-19T02:16:25.451Z,100.00
2023-04-19T02:18:52.148Z,100.00
2023-04-19T02:21:18.761Z,100.00
2023-04-19T02:23:45.669Z,100.00
2023-04-19T02:26:13.064Z,100.00
2023-04-19T02:28:39.503Z,100.00
2023-04-19T02:31:06.911Z,100.00
2023-04-19T02:33:33.360Z,100.00
2023-04-19T02:35:59.836Z,100.00
2023-04-19T02:38:26.342Z,100.00
2023-04-19T02:40:52.843Z,100.00
2023-04-19T02:43:19.350Z,100.00
2023-04-19T02:45:45.952Z,100.00
2023-04-19T02:48:12.527Z,100.00
2023-04-19T02:50:38.973Z,100.00
2023-04-19T02:53:05.819Z,100.00
2023-04-19T02:55:32.373Z,100.00
2023-04-19T02:57:58.877Z,100.00
2023-04-19T03:00:25.425Z,100.00
2023-04-19T03:02:52.060Z,100.00
2023-04-19T03:05:18.751Z,100.00
2023-04-19T03:07:45.285Z,100.00
2023-04-19T03:10:11.738Z,100.00
2023-04-19T03:12:38.167Z,100.00
2023-04-19T03:15:05.159Z,100.00
2023-04-19T03:17:31.778Z,100.00
2023-04-19T03:19:58.951Z,100.00
2023-04-19T03:22:25.390Z,100.00
2023-04-19T03:24:51.996Z,100.00
2023-04-19T03:27:18.542Z,100.00
2023-04-19T03:29:45.819Z,100.00
2023-04-19T03:32:13.663Z,100.00
2023-04-19T03:34:41.180Z,100.00
2023-04-19T03:37:07.694Z,100.00
2023-04-19T03:39:34.198Z,100.00
2023-04-19T03:42:01.466Z,100.00
2023-04-19T03:44:27.982Z,100.00
2023-04-19T03:46:54.418Z,100.00
2023-04-19T03:49:20.844Z,100.00
2023-04-19T03:51:47.283Z,100.00
2023-04-19T03:54:14.040Z,100.00
2023-04-19T03:56:40.672Z,100.00
2023-04-19T03:59:07.132Z,100.00
2023-04-19T04:01:33.617Z,100.00
2023-04-19T04:04:02.285Z,100.00
2023-04-19T04:06:30.538Z,100.00
2023-04-19T04:08:56.988Z,100.00
2023-04-19T04:11:23.652Z,100.00
2023-04-19T04:13:50.460Z,100.00
2023-04-19T04:16:17.077Z,100.00
2023-04-19T04:18:43.677Z,100.00
2023-04-19T04:21:10.225Z,100.00
2023-04-19T04:23:37.813Z,100.00
2023-04-19T04:26:05.390Z,100.00
2023-04-19T04:28:32.189Z,100.00
2023-04-19T04:31:00.306Z,100.00
2023-04-19T04:33:28.352Z,100.00
2023-04-19T04:35:55.292Z,100.00
2023-04-19T04:38:25.057Z,100.00
2023-04-19T04:40:55.898Z,100.00
2023-04-19T04:43:29.626Z,100.00
2023-04-19T04:45:58.037Z,100.00
2023-04-19T04:48:25.358Z,100.00
2023-04-19T04:50:51.886Z,100.00
2023-04-19T04:53:18.598Z,100.00
2023-04-19T04:55:45.110Z,100.00
2023-04-19T04:58:11.516Z,100.00
2023-04-19T05:00:37.941Z,100.00
2023-04-19T05:03:04.637Z,100.00
2023-04-19T05:05:31.336Z,100.00
2023-04-19T05:07:57.878Z,100.00
2023-04-19T05:10:24.336Z,100.00
2023-04-19T05:12:50.897Z,100.00
2023-04-19T05:15:17.463Z,100.00
2023-04-19T05:17:43.914Z,100.00
2023-04-19T05:20:11.102Z,100.00
2023-04-19T05:22:37.822Z,100.00
2023-04-19T05:25:06.170Z,100.00
2023-04-19T05:27:32.991Z,100.00
2023-04-19T05:29:59.473Z,100.00
2023-04-19T05:32:26.197Z,100.00
2023-04-19T05:34:52.737Z,100.00
2023-04-19T05:37:19.199Z,100.00
2023-04-19T05:39:45.693Z,100.00
2023-04-19T05:42:12.177Z,100.00
2023-04-19T05:44:38.675Z,100.00
2023-04-19T05:47:05.390Z,100.00
2023-04-19T05:49:31.868Z,100.00
2023-04-19T05:51:58.390Z,100.00
2023-04-19T05:54:24.908Z,100.00
2023-04-19T05:56:51.485Z,100.00
2023-04-19T05:59:17.924Z,100.00
2023-04-19T06:01:44.466Z,100.00
2023-04-19T06:04:11.395Z,100.00
2023-04-19T06:06:38.214Z,100.00
2023-04-19T06:09:06.819Z,100.00
2023-04-19T06:11:42.978Z,100.00
2023-04-19T06:14:16.808Z,100.00
2023-04-19T06:16:43.440Z,100.00
2023-04-19T06:19:09.923Z,100.00
2023-04-19T06:21:36.460Z,100.00
2023-04-19T06:24:03.646Z,100.00
2023-04-19T06:26:30.163Z,100.00
2023-04-19T06:28:56.610Z,100.00
2023-04-19T06:31:23.387Z,100.00
2023-04-19T06:33:50.353Z,99.23
2023-04-19T06:36:17.140Z,98.47
2023-04-19T06:38:44.660Z,97.49
2023-04-19T06:41:11.119Z,97.94
2023-04-19T06:43:37.618Z,97.04
2023-04-19T06:46:06.964Z,97.54
2023-04-19T06:48:34.585Z,99.20
2023-04-19T06:51:01.253Z,98.42
2023-04-19T06:53:27.744Z,98.72
2023-04-19T06:56:02.715Z,98.79
2023-04-19T06:58:29.209Z,97.81
2023-04-19T07:00:56.146Z,98.06
2023-04-19T07:03:22.897Z,97.38
2023-04-19T07:05:49.930Z,96.82
2023-04-19T07:08:16.470Z,97.07
2023-04-19T07:10:43.883Z,96.98
2023-04-19T07:13:13.521Z,94.45
2023-04-19T07:15:40.300Z,94.05
2023-04-19T07:18:07.274Z,93.19
2023-04-19T07:20:34.292Z,93.51
2023-04-19T07:23:00.821Z,91.97
2023-04-19T07:25:27.758Z,90.87
2023-04-19T07:27:54.877Z,91.25
2023-04-19T07:30:21.613Z,90.49
2023-04-19T07:32:48.555Z,89.67
2023-04-19T07:35:15.160Z,88.85
2023-04-19T07:37:42.273Z,87.47
2023-04-19T07:40:09.293Z,86.63
2023-04-19T07:42:35.771Z,86.75
2023-04-19T07:45:02.275Z,87.05
2023-04-19T07:47:28.908Z,86.09
2023-04-19T07:49:56.323Z,86.28
2023-04-19T07:52:22.780Z,87.13
2023-04-19T07:54:49.279Z,85.84
2023-04-19T07:57:15.742Z,85.63
2023-04-19T07:59:42.156Z,83.50
2023-04-19T08:02:08.722Z,84.26
2023-04-19T08:04:35.693Z,82.82
2023-04-19T08:07:04.080Z,82.29
2023-04-19T08:09:30.564Z,81.98
2023-04-19T08:11:57.722Z,81.81
2023-04-19T08:14:37.753Z,81.22
2023-04-19T08:17:24.247Z,79.07
2023-04-19T08:19:52.786Z,78.64
2023-04-19T08:22:20.304Z,79.60
2023-04-19T08:24:48.993Z,79.40
2023-04-19T08:27:15.630Z,77.88
2023-04-19T08:29:42.499Z,76.55
2023-04-19T08:32:09.077Z,76.57
2023-04-19T08:34:38.879Z,74.97
2023-04-19T08:37:07.225Z,75.42
2023-04-19T08:39:34.764Z,74.01
2023-04-19T08:42:18.370Z,73.56
2023-04-19T08:45:22.611Z,71.94
2023-04-19T08:47:58.649Z,71.23
2023-04-19T08:50:33.123Z,70.75
2023-04-19T08:53:12.195Z,71.51
2023-04-19T08:56:06.957Z,70.99
2023-04-19T09:01:06.137Z,68.89
2023-04-19T09:03:40.854Z,69.97
2023-04-19T09:06:14.577Z,69.02
2023-04-19T09:08:41.907Z,69.22
2023-04-19T09:11:08.839Z,69.09
2023-04-19T09:13:40.461Z,69.07
2023-04-19T09:16:08.078Z,68.70
2023-04-19T09:18:59.815Z,68.75
2023-04-19T09:21:35.805Z,68.19
2023-04-19T09:24:03.739Z,67.74
2023-04-19T09:26:30.964Z,67.62
2023-04-19T09:29:02.644Z,67.08
2023-04-19T09:31:47.894Z,68.27
2023-04-19T09:34:19.250Z,67.48
2023-04-19T09:36:46.895Z,67.18
2023-04-19T09:39:14.648Z,66.82
2023-04-19T09:41:52.757Z,66.09
2023-04-19T09:46:53.353Z,65.50
2023-04-19T09:49:41.705Z,65.49
2023-04-19T09:52:14.539Z,65.18
2023-04-19T09:54:41.927Z,65.17
2023-04-19T09:57:08.573Z,63.54
2023-04-19T09:59:35.239Z,63.34
2023-04-19T10:02:03.088Z,63.92
2023-04-19T10:04:49.916Z,64.95
2023-04-19T10:09:53.662Z,64.55
2023-04-19T10:12:46.313Z,64.85
2023-04-19T10:15:11.762Z,65.25
2023-04-19T10:17:38.743Z,63.54
2023-04-19T10:20:10.544Z,63.93
2023-04-19T10:22:38.676Z,62.36
2023-04-19T10:25:15.872Z,60.21
2023-04-19T10:27:48.882Z,59.35
2023-04-19T10:30:27.234Z,59.72
2023-04-19T10:32:56.391Z,56.41
2023-04-19T10:35:25.902Z,53.61
2023-04-19T10:38:02.690Z,53.03
2023-04-19T10:40:51.351Z,53.45
2023-04-19T10:43:19.122Z,53.97
2023-04-19T10:45:46.385Z,53.95
2023-04-19T10:48:35.241Z,52.07
2023-04-19T10:51:23.109Z,51.65
2023-04-19T10:53:57.680Z,49.53
2023-04-19T10:56:33.540Z,47.30
2023-04-19T10:59:07.676Z,48.08
2023-04-19T11:01:42.997Z,49.32
2023-04-19T11:04:14.916Z,50.65
2023-04-19T11:06:53.797Z,49.45
2023-04-19T11:09:34.692Z,48.42
2023-04-19T11:12:03.565Z,49.33
2023-04-19T11:14:32.807Z,50.78
2023-04-19T11:17:00.609Z,48.93
2023-04-19T11:19:27.214Z,47.62
2023-04-19T11:21:58.555Z,47.21
2023-04-19T11:24:25.242Z,48.67
2023-04-19T11:26:54.078Z,50.22
2023-04-19T11:29:21.875Z,50.13
2023-04-19T11:31:48.621Z,50.73
2023-04-19T11:34:15.475Z,51.65
2023-04-19T11:36:52.464Z,49.51
2023-04-19T11:39:19.670Z,50.87
2023-04-19T11:41:47.367Z,51.45
2023-04-19T11:44:20.108Z,51.66
2023-04-19T11:46:59.646Z,50.99
2023-04-19T11:49:30.772Z,49.74
2023-04-19T11:51:59.400Z,48.45
2023-04-19T11:54:26.932Z,49.70
2023-04-19T11:57:00.097Z,49.72
2023-04-19T11:59:26.616Z,49.76
2023-04-19T12:01:53.065Z,50.79
2023-04-19T12:04:21.574Z,49.71
2023-04-19T12:06:57.938Z,48.83
2023-04-19T12:09:24.530Z,48.84
2023-04-19T12:11:51.181Z,50.02
2023-04-19T12:14:21.494Z,48.84
2023-04-19T12:17:14.470Z,48.06
2023-04-19T12:19:46.353Z,47.31
2023-04-19T12:22:20.273Z,48.47
2023-04-19T12:24:46.804Z,49.61
2023-04-19T12:27:17.896Z,47.85
2023-04-19T12:29:44.736Z,46.97
2023-04-19T12:32:11.354Z,46.46
2023-04-19T12:34:37.898Z,45.56
2023-04-19T12:37:04.499Z,45.72
2023-04-19T12:39:31.006Z,44.53
2023-04-19T12:41:57.582Z,45.22
2023-04-19T12:44:24.111Z,45.98
2023-04-19T12:46:50.658Z,43.08
2023-04-19T12:49:20.462Z,42.72
2023-04-19T12:51:47.663Z,43.18
2023-04-19T12:54:15.287Z,41.60
2023-04-19T12:56:41.738Z,42.64
2023-04-19T12:59:08.272Z,41.81
2023-04-19T13:01:34.801Z,41.82
2023-04-19T13:04:01.477Z,42.70
2023-04-19T13:06:28.139Z,42.63
2023-04-19T13:08:55.020Z,42.66
2023-04-19T13:11:23.543Z,40.97
2023-04-19T13:13:51.663Z,42.12
2023-04-19T13:16:18.514Z,40.96
2023-04-19T13:18:45.162Z,39.54
2023-04-19T13:21:11.828Z,41.65
2023-04-19T13:23:38.322Z,41.73
2023-04-19T13:26:05.042Z,39.47
2023-04-19T13:28:31.599Z,38.35
2023-04-19T13:30:58.129Z,38.19
2023-04-19T13:33:25.844Z,39.42
2023-04-19T13:35:52.309Z,38.78
2023-04-19T13:38:18.881Z,38.14
2023-04-19T13:40:45.481Z,41.94
2023-04-19T13:43:11.890Z,37.25
2023-04-19T13:45:38.319Z,39.28
2023-04-19T13:48:05.244Z,39.06
2023-04-19T13:50:31.724Z,38.34
2023-04-19T13:52:58.248Z,39.37
2023-04-19T13:55:24.890Z,38.54
2023-04-19T13:57:51.322Z,38.90
2023-04-19T14:00:18.640Z,39.44
2023-04-19T14:02:45.820Z,39.55
2023-04-19T14:05:12.392Z,39.83
2023-04-19T14:07:42.078Z,37.59
2023-04-19T14:10:09.801Z,36.93
2023-04-19T14:12:36.354Z,37.64
2023-04-19T14:15:03.940Z,37.17
2023-04-19T14:17:30.385Z,36.52
2023-04-19T14:19:57.057Z,37.06
2023-04-19T14:22:23.616Z,36.27
2023-04-19T14:24:50.280Z,36.75
2023-04-19T14:27:17.014Z,35.88
2023-04-19T14:29:43.459Z,36.66
2023-04-19T14:32:24.233Z,36.87
2023-04-19T14:34:52.474Z,37.80
2023-04-19T14:37:19.359Z,37.38
2023-04-19T14:39:46.498Z,37.87
2023-04-19T14:42:13.681Z,38.13
2023-04-19T14:44:41.090Z,36.94
2023-04-19T14:47:07.656Z,37.54
2023-04-19T14:49:34.354Z,38.62
2023-04-19T14:52:00.833Z,37.26
2023-04-19T14:54:27.291Z,37.43
2023-04-19T14:56:53.821Z,37.43
2023-04-19T14:59:20.510Z,37.70
2023-04-19T15:01:47.229Z,37.69
2023-04-19T15:04:14.003Z,37.83
2023-04-19T15:06:41.182Z,36.63
2023-04-19T15:09:07.680Z,38.76
2023-04-19T15:11:34.177Z,38.01
2023-04-19T15:14:00.631Z,36.50
2023-04-19T15:16:27.153Z,36.87
2023-04-19T15:18:53.770Z,36.58
2023-04-19T15:21:24.214Z,36.20
2023-04-19T15:23:51.212Z,37.29
2023-04-19T15:26:17.760Z,36.97
2023-04-19T15:28:44.232Z,38.39
2023-04-19T15:31:10.981Z,39.06
2023-04-19T15:33:37.827Z,38.07
2023-04-19T15:36:05.473Z,37.39
2023-04-19T15:38:32.632Z,37.55
2023-04-19T15:40:59.911Z,39.24
2023-04-19T15:43:26.586Z,38.07
2023-04-19T15:45:53.170Z,38.93
2023-04-19T15:48:20.784Z,38.59
2023-04-19T15:50:47.418Z,38.44
2023-04-19T15:53:14.455Z,38.34
2023-04-19T15:55:41.555Z,38.08
2023-04-19T15:58:08.315Z,37.37
2023-04-19T16:00:35.105Z,37.65
2023-04-19T16:03:01.938Z,37.72
2023-04-19T16:05:28.624Z,37.93
2023-04-19T16:08:03.250Z,38.02
2023-04-19T16:10:29.878Z,38.59
2023-04-19T16:12:56.390Z,37.57
2023-04-19T16:15:23.109Z,37.16
2023-04-19T16:17:49.812Z,38.27
2023-04-19T16:20:16.353Z,36.82
2023-04-19T16:22:42.786Z,37.26
2023-04-19T16:25:11.346Z,37.06
2023-04-19T16:27:42.393Z,37.66
2023-04-19T16:30:13.485Z,37.22
2023-04-19T16:32:40.730Z,37.01
2023-04-19T16:35:08.018Z,37.13
2023-04-19T16:37:35.286Z,35.93
2023-04-19T16:40:08.083Z,36.81
2023-04-19T16:42:35.814Z,36.81
2023-04-19T16:45:02.637Z,37.62
2023-04-19T16:47:30.689Z,36.76
2023-04-19T16:49:58.384Z,36.17
2023-04-19T16:52:29.751Z,35.55
2023-04-19T16:54:56.279Z,36.68
2023-04-19T16:57:23.772Z,37.06
2023-04-19T16:59:50.630Z,37.76
2023-04-19T17:02:17.506Z,36.42
2023-04-19T17:04:44.505Z,36.49
2023-04-19T17:07:11.672Z,35.57
2023-04-19T17:09:38.266Z,37.05
2023-04-19T17:12:05.131Z,36.33
2023-04-19T17:14:34.070Z,36.89
2023-04-19T17:17:00.677Z,36.70
2023-04-19T17:19:27.742Z,36.99
2023-04-19T17:21:54.220Z,36.56
2023-04-19T17:24:20.700Z,36.86
2023-04-19T17:26:47.167Z,37.74
2023-04-19T17:29:13.602Z,37.53
2023-04-19T17:31:40.122Z,37.69
2023-04-19T17:34:06.707Z,37.46
2023-04-19T17:36:33.146Z,37.47
2023-04-19T17:38:59.644Z,37.91
2023-04-19T17:41:26.951Z,38.91
2023-04-19T17:43:53.566Z,37.68
2023-04-19T17:46:20.894Z,37.85
2023-04-19T17:48:47.480Z,37.92
2023-04-19T17:51:13.938Z,36.85
2023-04-19T17:53:40.565Z,37.84
2023-04-19T17:56:06.995Z,38.08
2023-04-19T17:58:35.046Z,38.34
2023-04-19T18:01:03.294Z,38.86
2023-04-19T18:03:29.931Z,38.39
2023-04-19T18:05:56.554Z,38.73
2023-04-19T18:08:23.040Z,39.05
2023-04-19T18:10:49.496Z,39.00
2023-04-19T18:13:15.982Z,39.36
2023-04-19T18:15:42.580Z,39.51
2023-04-19T18:18:09.162Z,38.73
2023-04-19T18:20:35.858Z,40.61
2023-04-19T18:23:02.652Z,39.74
2023-04-19T18:25:29.331Z,40.51
2023-04-19T18:27:55.908Z,40.60
2023-04-19T18:30:22.910Z,41.25
2023-04-19T18:32:49.500Z,41.02
2023-04-19T18:35:16.022Z,40.88
2023-04-19T18:37:42.548Z,41.48
2023-04-19T18:40:09.420Z,41.88
2023-04-19T18:42:35.827Z,41.64
2023-04-19T18:45:04.199Z,42.38
2023-04-19T18:47:31.897Z,42.07
2023-04-19T18:50:05.119Z,42.82
2023-04-19T18:52:35.615Z,42.08
2023-04-19T18:55:02.762Z,42.49
2023-04-19T18:57:33.358Z,42.75
2023-04-19T19:00:01.822Z,43.28
2023-04-19T19:02:28.382Z,43.42
2023-04-19T19:04:58.434Z,43.49
2023-04-19T19:07:36.166Z,43.42
2023-04-19T19:10:16.837Z,43.85
2023-04-19T19:12:45.610Z,44.10
2023-04-19T19:15:14.722Z,44.01
2023-04-19T19:17:41.257Z,44.89
2023-04-19T19:20:09.807Z,43.98
2023-04-19T19:22:36.270Z,44.64
2023-04-19T19:25:02.833Z,44.34
2023-04-19T19:27:29.423Z,45.00
2023-04-19T19:29:56.136Z,45.10
2023-04-19T19:32:22.850Z,45.82
2023-04-19T19:37:19.761Z,46.78
2023-04-19T19:39:46.692Z,45.88
2023-04-19T19:42:16.318Z,45.99
2023-04-19T19:44:43.224Z,46.26
2023-04-19T19:47:10.946Z,46.92
2023-04-19T19:52:07.403Z,46.95
2023-04-19T19:54:34.008Z,47.66
2023-04-19T19:57:57.308Z,47.70
2023-04-19T19:59:52.652Z,48.64
2023-04-19T20:02:22.101Z,48.49
2023-04-19T20:04:49.455Z,48.79
2023-04-19T20:09:45.761Z,48.29
2023-04-19T20:12:13.651Z,48.62
2023-04-19T20:14:40.680Z,49.58
2023-04-19T20:17:07.475Z,48.86
2023-04-19T20:19:34.044Z,49.50
2023-04-19T20:22:00.738Z,49.77
2023-04-19T20:24:27.582Z,50.82
2023-04-19T20:26:54.010Z,50.57
2023-04-19T20:29:20.625Z,50.58
2023-04-19T20:31:47.158Z,50.67
2023-04-19T20:34:13.875Z,51.64
2023-04-19T20:36:40.494Z,51.00
2023-04-19T20:39:12.948Z,51.30
2023-04-19T20:41:39.737Z,52.48
2023-04-19T20:44:06.600Z,53.00
2023-04-19T20:46:36.120Z,52.69
2023-04-19T20:49:02.628Z,53.54
2023-04-19T20:51:29.285Z,53.76
2023-04-19T20:53:56.077Z,53.24
2023-04-19T20:56:23.198Z,53.12
2023-04-19T20:58:49.725Z,53.67
2023-04-19T21:01:17.598Z,53.70
2023-04-19T21:03:45.180Z,54.22
2023-04-19T21:06:12.582Z,54.63
2023-04-19T21:08:39.144Z,55.12
2023-04-19T21:11:05.613Z,54.94
2023-04-19T21:13:34.850Z,55.64
2023-04-19T21:16:01.441Z,56.10
2023-04-19T21:18:29.881Z,56.51
2023-04-19T21:20:57.607Z,56.63
2023-04-19T21:23:24.149Z,56.60
2023-04-19T21:25:51.203Z,58.13
2023-04-19T21:28:17.755Z,57.85
2023-04-19T21:30:44.304Z,57.94
2023-04-19T21:33:10.917Z,58.11
2023-04-19T21:35:37.424Z,57.66
2023-04-19T21:38:04.076Z,57.66
2023-04-19T21:40:30.667Z,57.14
2023-04-19T21:42:57.199Z,57.94
2023-04-19T21:45:23.787Z,56.43
2023-04-19T21:47:50.996Z,57.23
2023-04-19T21:50:17.744Z,58.53
2023-04-19T21:52:44.258Z,57.71
2023-04-19T21:55:10.761Z,57.54
2023-04-19T21:57:38.334Z,57.94
2023-04-19T22:00:06.887Z,58.62
2023-04-19T22:02:33.547Z,58.48
2023-04-19T22:05:00.332Z,59.76
2023-04-19T22:07:30.296Z,58.81
2023-04-19T22:09:57.752Z,59.54
2023-04-19T22:12:27.446Z,58.29
2023-04-19T22:14:54.027Z,59.50
2023-04-19T22:17:20.874Z,59.70
2023-04-19T22:19:48.437Z,60.26
2023-04-19T22:22:15.236Z,60.18
2023-04-19T22:24:56.098Z,60.54
2023-04-19T22:27:24.368Z,60.59
2023-04-19T22:29:50.858Z,59.24
2023-04-19T22:32:17.350Z,60.67
2023-04-19T22:34:43.946Z,59.33
2023-04-19T22:37:10.392Z,60.83
2023-04-19T22:39:36.815Z,61.23
2023-04-19T22:42:03.323Z,60.39
2023-04-19T22:44:29.847Z,62.50
2023-04-19T22:46:56.539Z,61.53
2023-04-19T22:49:24.062Z,60.39
2023-04-19T22:51:50.669Z,60.52
2023-04-19T22:54:17.254Z,60.28
2023-04-19T22:56:43.721Z,59.07
2023-04-19T22:59:10.246Z,59.76
2023-04-19T23:01:36.798Z,59.65
2023-04-19T23:04:03.287Z,58.87
2023-04-19T23:06:30.234Z,59.52
2023-04-19T23:08:56.642Z,60.06
2023-04-19T23:11:25.094Z,60.33
2023-04-19T23:13:55.331Z,60.34
2023-04-19T23:16:25.373Z,59.52
2023-04-19T23:18:52.331Z,59.44
2023-04-19T23:21:18.909Z,59.47
2023-04-19T23:23:45.700Z,58.25
2023-04-19T23:26:12.343Z,57.56
2023-04-19T23:28:38.866Z,59.35
2023-04-19T23:31:05.617Z,58.35
2023-04-19T23:33:32.169Z,59.11
2023-04-19T23:35:58.640Z,58.60
2023-04-19T23:38:25.089Z,58.58
2023-04-19T23:40:51.518Z,58.42
2023-04-19T23:43:17.957Z,59.09
2023-04-19T23:45:44.502Z,57.78
2023-04-19T23:48:10.983Z,57.24
2023-04-19T23:50:37.400Z,58.47
2023-04-19T23:53:05.377Z,58.23
2023-04-19T23:55:31.791Z,57.39
2023-04-19T23:57:58.447Z,58.06
